createdAt,value
2017-09-21T00:02:19.869Z,11.60
2017-09-21T00:04:46.743Z,11.50
2017-09-21T00:07:12.966Z,11.60
2017-09-21T00:09:39.537Z,11.60
2017-09-21T00:12:06.028Z,11.60
2017-09-21T00:14:33.986Z,11.60
2017-09-21T00:17:00.779Z,11.60
2017-09-21T00:19:27.197Z,11.60
2017-09-21T00:21:54.038Z,11.50
2017-09-21T00:24:20.575Z,11.50
2017-09-21T00:26:49.023Z,11.50
2017-09-21T00:29:16.045Z,11.50
2017-09-21T00:31:42.259Z,11.60
2017-09-21T00:34:09.231Z,11.60
2017-09-21T00:36:35.467Z,11.60
2017-09-21T00:39:01.862Z,11.50
2017-09-21T00:41:29.802Z,11.40
2017-09-21T00:43:56.027Z,11.40
2017-09-21T00:46:23.045Z,11.40
2017-09-21T00:48:50.928Z,11.20
2017-09-21T00:51:17.678Z,11.20
2017-09-21T00:53:44.435Z,11.10
2017-09-21T00:56:10.686Z,11.10
2017-09-21T00:58:38.445Z,11.20
2017-09-21T01:01:05.754Z,11.20
2017-09-21T01:03:33.755Z,11.30
2017-09-21T01:06:00.500Z,11.20
2017-09-21T01:08:28.241Z,11.30
2017-09-21T01:10:55.007Z,11.30
2017-09-21T01:13:22.019Z,11.30
2017-09-21T01:15:48.627Z,11.30
2017-09-21T01:18:15.678Z,11.40
2017-09-21T01:20:42.365Z,11.40
2017-09-21T01:23:09.534Z,11.30
2017-09-21T01:25:37.062Z,11.40
2017-09-21T01:28:04.031Z,11.40
2017-09-21T01:30:31.925Z,11.40
2017-09-21T01:32:58.432Z,11.30
2017-09-21T01:35:26.729Z,11.40
2017-09-21T01:37:53.010Z,11.30
2017-09-21T01:40:19.279Z,11.30
2017-09-21T01:42:47.136Z,11.30
2017-09-21T01:45:14.887Z,11.30
2017-09-21T01:47:42.540Z,11.30
2017-09-21T01:50:10.034Z,11.30
2017-09-21T01:52:37.680Z,11.30
2017-09-21T01:55:04.936Z,11.30
2017-09-21T01:57:32.884Z,11.30
2017-09-21T02:00:00.178Z,11.30
2017-09-21T02:02:28.001Z,11.20
2017-09-21T02:04:54.495Z,11.20
2017-09-21T02:07:20.963Z,11.20
2017-09-21T02:09:48.378Z,11.20
2017-09-21T02:12:15.315Z,11.10
2017-09-21T02:14:42.017Z,11.10
2017-09-21T02:17:09.903Z,10.90
2017-09-21T02:19:37.992Z,10.90
2017-09-21T02:22:04.782Z,10.90
2017-09-21T02:24:31.045Z,10.90
2017-09-21T02:26:58.150Z,11.00
2017-09-21T02:29:24.400Z,11.00
2017-09-21T02:31:50.829Z,11.00
2017-09-21T02:34:18.394Z,10.90
2017-09-21T02:36:46.380Z,10.90
2017-09-21T02:39:15.377Z,10.90
2017-09-21T02:41:42.398Z,10.90
2017-09-21T02:44:09.387Z,11.00
2017-09-21T02:46:36.229Z,11.00
2017-09-21T02:49:03.972Z,11.00
2017-09-21T02:51:30.935Z,11.00
2017-09-21T02:53:57.993Z,11.00
2017-09-21T02:56:25.593Z,11.00
2017-09-21T02:58:53.697Z,11.00
2017-09-21T03:01:21.745Z,11.10
2017-09-21T03:03:50.300Z,11.00
2017-09-21T03:06:16.513Z,11.00
2017-09-21T03:08:43.492Z,11.00
2017-09-21T03:11:10.690Z,11.00
2017-09-21T03:13:37.443Z,11.00
2017-09-21T03:16:05.308Z,11.00
2017-09-21T03:18:32.308Z,11.00
2017-09-21T03:20:59.286Z,11.00
2017-09-21T03:23:25.726Z,11.00
2017-09-21T03:25:52.956Z,11.00
2017-09-21T03:28:19.908Z,11.00
2017-09-21T03:30:46.111Z,11.00
2017-09-21T03:33:13.346Z,11.10
2017-09-21T03:35:40.344Z,11.10
2017-09-21T03:38:06.859Z,11.00
2017-09-21T03:40:34.424Z,11.00
2017-09-21T03:43:02.199Z,11.00
2017-09-21T03:45:29.467Z,11.00
2017-09-21T03:47:56.211Z,10.90
2017-09-21T03:50:23.533Z,10.90
2017-09-21T03:52:49.743Z,11.00
2017-09-21T03:55:17.661Z,11.10
2017-09-21T03:57:43.938Z,11.10
2017-09-21T04:00:10.905Z,11.00
2017-09-21T04:02:38.663Z,11.00
2017-09-21T04:05:05.121Z,10.90
2017-09-21T04:07:32.347Z,10.90
2017-09-21T04:09:59.232Z,10.90
2017-09-21T04:12:25.913Z,10.80
2017-09-21T04:14:53.623Z,10.90
2017-09-21T04:17:19.851Z,10.90
2017-09-21T04:19:46.799Z,10.90
2017-09-21T04:22:13.045Z,10.70
2017-09-21T04:24:40.048Z,10.70
2017-09-21T04:27:07.158Z,10.80
2017-09-21T04:29:34.006Z,10.80
2017-09-21T04:32:00.980Z,10.80
2017-09-21T04:34:28.361Z,10.80
2017-09-21T04:36:55.100Z,10.80
2017-09-21T04:39:21.871Z,10.80
2017-09-21T04:41:48.584Z,10.60
2017-09-21T04:44:15.060Z,10.70
2017-09-21T04:46:42.090Z,10.80
2017-09-21T04:49:08.298Z,10.80
2017-09-21T04:51:34.618Z,10.90
2017-09-21T04:54:01.325Z,10.90
2017-09-21T04:56:27.670Z,10.80
2017-09-21T04:58:54.131Z,10.80
2017-09-21T05:01:21.556Z,10.90
2017-09-21T05:03:49.176Z,10.90
2017-09-21T05:06:15.592Z,10.90
2017-09-21T05:08:42.472Z,10.90
2017-09-21T05:11:10.046Z,11.00
2017-09-21T05:13:36.305Z,10.90
2017-09-21T05:16:02.702Z,11.00
2017-09-21T05:18:29.428Z,11.00
2017-09-21T05:20:57.264Z,11.00
2017-09-21T05:23:23.488Z,11.00
2017-09-21T05:25:49.715Z,11.00
2017-09-21T05:28:16.588Z,11.00
2017-09-21T05:30:43.552Z,10.80
2017-09-21T05:33:10.094Z,10.80
2017-09-21T05:35:37.576Z,10.70
2017-09-21T05:38:03.830Z,10.70
2017-09-21T05:40:30.174Z,10.70
2017-09-21T05:42:56.591Z,10.70
2017-09-21T05:55:04.985Z,10.80
2017-09-21T05:57:32.519Z,10.90
2017-09-21T05:59:59.600Z,10.90
2017-09-21T06:02:26.111Z,10.90
2017-09-21T06:04:53.527Z,11.00
2017-09-21T06:07:20.689Z,11.00
2017-09-21T06:09:46.920Z,11.10
2017-09-21T06:12:13.821Z,11.10
2017-09-21T06:14:40.127Z,11.20
2017-09-21T06:17:06.570Z,11.20
2017-09-21T06:19:33.595Z,11.30
2017-09-21T06:22:01.145Z,11.30
2017-09-21T06:24:27.694Z,11.30
2017-09-21T06:26:54.167Z,11.30
2017-09-21T06:29:20.470Z,11.40
2017-09-21T06:31:47.500Z,11.50
2017-09-21T06:34:14.766Z,11.60
2017-09-21T06:36:41.918Z,11.60
2017-09-21T06:39:09.771Z,11.70
2017-09-21T06:41:36.257Z,11.70
2017-09-21T06:44:03.472Z,11.80
2017-09-21T06:46:31.141Z,11.80
2017-09-21T06:48:57.560Z,11.80
2017-09-21T06:51:24.721Z,11.90
2017-09-21T06:53:52.325Z,12.00
2017-09-21T06:56:20.186Z,12.00
2017-09-21T06:58:47.510Z,12.10
2017-09-21T07:01:13.759Z,12.10
2017-09-21T07:03:40.773Z,12.10
2017-09-21T07:06:07.766Z,12.20
2017-09-21T07:08:35.106Z,12.20
2017-09-21T07:11:01.678Z,12.30
2017-09-21T07:13:27.973Z,12.40
2017-09-21T07:15:54.589Z,12.50
2017-09-21T07:18:21.758Z,12.50
2017-09-21T07:20:49.181Z,12.50
2017-09-21T07:23:16.567Z,12.50
2017-09-21T07:25:44.834Z,12.50
2017-09-21T07:28:11.885Z,12.50
2017-09-21T07:30:40.174Z,12.70
2017-09-21T07:33:06.477Z,12.60
2017-09-21T07:35:32.722Z,12.70
2017-09-21T07:37:59.396Z,12.70
2017-09-21T07:40:26.306Z,12.80
2017-09-21T07:42:53.970Z,12.90
2017-09-21T07:45:21.916Z,13.00
2017-09-21T07:47:48.213Z,13.00
2017-09-21T07:50:14.469Z,12.90
2017-09-21T07:52:41.133Z,13.00
2017-09-21T07:55:08.278Z,12.90
2017-09-21T07:57:35.491Z,13.00
2017-09-21T08:00:02.597Z,13.00
2017-09-21T08:02:30.152Z,13.10
2017-09-21T08:04:56.574Z,13.10
2017-09-21T08:07:22.903Z,13.10
2017-09-21T08:09:49.345Z,13.20
2017-09-21T08:12:16.368Z,13.30
2017-09-21T08:14:44.910Z,13.30
2017-09-21T08:17:11.273Z,13.40
2017-09-21T08:19:37.493Z,13.40
2017-09-21T08:22:03.980Z,13.50
2017-09-21T08:24:30.578Z,13.50
2017-09-21T08:26:56.843Z,13.60
2017-09-21T08:29:23.263Z,13.70
2017-09-21T08:31:50.318Z,13.80
2017-09-21T08:34:17.469Z,13.70
2017-09-21T08:36:44.345Z,13.80
2017-09-21T08:39:12.215Z,14.00
2017-09-21T08:41:40.132Z,14.00
2017-09-21T08:44:06.465Z,14.00
2017-09-21T08:46:33.469Z,14.00
2017-09-21T08:49:00.440Z,14.10
2017-09-21T08:51:26.689Z,14.10
2017-09-21T08:53:52.944Z,14.20
2017-09-21T08:56:19.952Z,14.30
2017-09-21T08:58:48.497Z,14.50
2017-09-21T09:01:16.032Z,14.80
2017-09-21T09:03:42.786Z,14.80
2017-09-21T09:06:09.788Z,15.00
2017-09-21T09:08:36.399Z,15.00
2017-09-21T09:11:04.736Z,15.30
2017-09-21T09:13:34.536Z,15.30
2017-09-21T09:16:00.948Z,15.40
2017-09-21T09:18:28.514Z,15.50
2017-09-21T09:20:55.109Z,15.50
2017-09-21T09:23:21.933Z,15.40
2017-09-21T09:25:48.933Z,15.50
2017-09-21T09:28:15.581Z,15.50
2017-09-21T09:30:41.837Z,15.50
2017-09-21T09:33:08.287Z,15.60
2017-09-21T09:35:36.100Z,15.70
2017-09-21T09:38:04.177Z,15.90
2017-09-21T09:40:30.768Z,15.90
2017-09-21T09:42:58.340Z,15.90
2017-09-21T09:45:25.144Z,15.90
2017-09-21T09:47:52.362Z,16.00
2017-09-21T09:50:19.168Z,16.00
2017-09-21T09:52:46.060Z,16.00
2017-09-21T09:55:12.316Z,16.10
2017-09-21T09:57:40.667Z,16.40
2017-09-21T10:00:07.991Z,16.40
2017-09-21T10:02:35.055Z,16.50
2017-09-21T10:05:02.250Z,16.40
2017-09-21T10:07:30.510Z,16.70
2017-09-21T10:09:57.508Z,16.60
2017-09-21T10:12:24.444Z,16.80
2017-09-21T10:14:52.038Z,16.90
2017-09-21T10:17:18.634Z,16.80
2017-09-21T10:19:45.751Z,17.10
2017-09-21T10:22:12.269Z,17.10
2017-09-21T10:24:38.886Z,17.10
2017-09-21T10:27:05.139Z,17.10
2017-09-21T10:29:32.004Z,16.80
2017-09-21T10:31:59.156Z,17.00
2017-09-21T10:34:26.311Z,17.20
2017-09-21T10:36:53.720Z,17.40
2017-09-21T10:39:19.988Z,17.40
2017-09-21T10:41:47.806Z,17.70
2017-09-21T10:44:14.091Z,17.70
2017-09-21T10:46:41.333Z,17.70
2017-09-21T10:49:08.333Z,17.60
2017-09-21T10:51:34.591Z,17.60
2017-09-21T10:54:00.817Z,17.70
2017-09-21T10:56:28.164Z,17.70
2017-09-21T10:58:54.908Z,17.60
2017-09-21T11:01:21.730Z,17.60
2017-09-21T11:03:48.037Z,17.50
2017-09-21T11:06:14.692Z,17.60
2017-09-21T11:08:41.134Z,17.70
2017-09-21T11:11:08.411Z,17.80
2017-09-21T11:13:34.656Z,17.80
2017-09-21T11:16:01.637Z,17.90
2017-09-21T11:18:28.212Z,17.90
2017-09-21T11:20:55.014Z,17.80
2017-09-21T11:23:21.289Z,17.70
2017-09-21T11:25:47.759Z,17.70
2017-09-21T11:28:14.161Z,17.60
2017-09-21T11:30:41.502Z,17.60
2017-09-21T11:33:07.781Z,17.60
2017-09-21T11:35:34.205Z,17.50
2017-09-21T11:38:00.676Z,17.40
2017-09-21T11:40:26.918Z,17.30
2017-09-21T11:42:53.601Z,17.40
2017-09-21T11:45:21.636Z,17.50
2017-09-21T11:47:47.952Z,17.50
2017-09-21T11:50:14.183Z,17.50
2017-09-21T11:52:41.058Z,17.60
2017-09-21T11:55:07.670Z,17.70
2017-09-21T11:57:34.299Z,17.70
2017-09-21T12:00:01.949Z,17.60
2017-09-21T12:02:28.668Z,17.60
2017-09-21T12:04:55.980Z,17.50
2017-09-21T12:07:23.330Z,17.50
2017-09-21T12:09:50.909Z,17.50
2017-09-21T12:12:17.937Z,17.40
2017-09-21T12:14:45.344Z,17.40
2017-09-21T12:17:12.385Z,17.40
2017-09-21T12:19:39.447Z,17.30
2017-09-21T12:22:06.522Z,17.10
2017-09-21T12:24:33.640Z,17.10
2017-09-21T12:27:00.616Z,17.00
2017-09-21T12:29:27.547Z,17.00
2017-09-21T12:31:54.223Z,17.10
2017-09-21T12:34:20.601Z,17.10
2017-09-21T12:36:47.822Z,17.10
2017-09-21T12:39:14.323Z,17.10
2017-09-21T12:41:41.728Z,17.20
2017-09-21T12:44:09.058Z,17.20
2017-09-21T12:46:35.270Z,17.30
2017-09-21T12:49:01.612Z,17.40
2017-09-21T12:51:27.833Z,17.30
2017-09-21T12:53:54.506Z,17.20
2017-09-21T12:56:20.836Z,17.20
2017-09-21T12:58:47.075Z,17.30
2017-09-21T13:01:14.198Z,17.30
2017-09-21T13:03:41.018Z,17.30
2017-09-21T13:06:07.538Z,17.30
2017-09-21T13:08:33.779Z,17.40
2017-09-21T13:11:00.669Z,17.40
2017-09-21T13:13:27.308Z,17.40
2017-09-21T13:15:54.793Z,17.60
2017-09-21T13:18:21.116Z,17.60
2017-09-21T13:20:47.867Z,17.60
2017-09-21T13:23:14.113Z,17.60
2017-09-21T13:25:40.659Z,17.50
2017-09-21T13:28:08.215Z,17.50
2017-09-21T13:30:34.960Z,17.50
2017-09-21T13:33:01.238Z,17.50
2017-09-21T13:35:28.202Z,17.50
2017-09-21T13:37:56.032Z,17.50
2017-09-21T13:40:23.535Z,17.50
2017-09-21T13:42:50.429Z,17.50
2017-09-21T13:45:17.799Z,17.40
2017-09-21T13:47:44.888Z,17.10
2017-09-21T13:50:11.168Z,17.10
2017-09-21T13:55:10.685Z,17.10
2017-09-21T13:57:37.170Z,17.10
2017-09-21T14:00:04.288Z,17.30
2017-09-21T14:02:31.279Z,17.40
2017-09-21T14:04:58.554Z,17.40
2017-09-21T14:07:25.540Z,17.40
2017-09-21T14:10:02.254Z,17.50
2017-09-21T14:12:28.555Z,17.40
2017-09-21T14:14:55.269Z,17.50
2017-09-21T14:17:22.321Z,17.40
2017-09-21T14:19:49.886Z,17.30
2017-09-21T14:22:16.402Z,17.30
2017-09-21T14:24:43.987Z,17.50
2017-09-21T14:27:11.092Z,17.50
2017-09-21T14:29:37.831Z,17.50
2017-09-21T14:32:04.162Z,17.50
2017-09-21T14:34:30.950Z,17.40
2017-09-21T14:36:57.489Z,17.40
2017-09-21T14:39:24.601Z,17.40
2017-09-21T14:41:51.712Z,17.40
2017-09-21T14:44:17.948Z,17.40
2017-09-21T14:46:44.745Z,17.50
2017-09-21T14:49:11.052Z,17.50
2017-09-21T14:51:38.632Z,17.50
2017-09-21T14:54:04.885Z,17.40
2017-09-21T14:56:32.089Z,17.40
2017-09-21T14:58:59.959Z,17.40
2017-09-21T15:01:27.065Z,17.50
2017-09-21T15:03:54.336Z,17.50
2017-09-21T15:06:21.343Z,17.50
2017-09-21T15:08:47.948Z,17.40
2017-09-21T15:11:14.932Z,17.30
2017-09-21T15:13:41.716Z,17.30
2017-09-21T15:16:08.986Z,17.20
2017-09-21T15:18:36.126Z,17.10
2017-09-21T15:21:03.222Z,17.10
2017-09-21T15:23:29.465Z,17.10
2017-09-21T15:25:56.337Z,17.20
2017-09-21T15:28:24.019Z,17.20
2017-09-21T15:30:51.008Z,17.20
2017-09-21T15:33:19.373Z,17.20
2017-09-21T15:35:46.970Z,17.10
2017-09-21T15:38:13.763Z,17.00
2017-09-21T15:40:40.147Z,17.10
2017-09-21T15:43:07.024Z,17.10
2017-09-21T15:45:37.723Z,17.10
2017-09-21T15:48:04.190Z,17.10
2017-09-21T15:50:30.490Z,17.00
2017-09-21T15:52:56.671Z,16.90
2017-09-21T15:55:22.944Z,16.90
2017-09-21T15:57:49.686Z,16.90
2017-09-21T16:00:16.953Z,16.80
2017-09-21T16:02:45.212Z,16.80
2017-09-21T16:05:11.453Z,16.80
2017-09-21T16:07:38.134Z,16.80
2017-09-21T16:10:04.333Z,16.80
2017-09-21T16:12:31.301Z,16.80
2017-09-21T16:14:57.535Z,16.80
2017-09-21T16:17:23.979Z,16.70
2017-09-21T16:19:51.047Z,16.70
2017-09-21T16:22:18.273Z,16.60
2017-09-21T16:24:46.816Z,16.60
2017-09-21T16:27:14.270Z,16.50
2017-09-21T16:29:42.321Z,16.50
2017-09-21T16:32:08.545Z,16.50
2017-09-21T16:34:34.783Z,16.50
2017-09-21T16:37:02.595Z,16.40
2017-09-21T16:39:29.054Z,16.30
2017-09-21T16:41:56.571Z,16.20
2017-09-21T16:44:23.158Z,16.20
2017-09-21T16:46:50.417Z,16.20
2017-09-21T16:49:17.318Z,16.20
2017-09-21T16:51:44.735Z,16.00
2017-09-21T16:54:11.698Z,15.90
2017-09-21T16:56:38.576Z,15.90
2017-09-21T16:59:04.823Z,15.90
2017-09-21T17:01:31.784Z,15.80
2017-09-21T17:03:58.304Z,15.70
2017-09-21T17:06:25.081Z,15.60
2017-09-21T17:08:52.682Z,15.50
2017-09-21T17:11:19.810Z,15.50
2017-09-21T17:13:47.312Z,15.40
2017-09-21T17:16:13.695Z,15.40
2017-09-21T17:18:40.462Z,15.30
2017-09-21T17:21:07.930Z,15.20
2017-09-21T17:23:34.209Z,15.10
2017-09-21T17:26:01.144Z,15.20
2017-09-21T17:28:28.259Z,15.20
2017-09-21T17:30:54.501Z,15.20
2017-09-21T17:33:20.728Z,15.10
2017-09-21T17:35:47.883Z,15.10
2017-09-21T17:38:14.649Z,15.00
2017-09-21T17:40:41.318Z,15.00
2017-09-21T17:43:07.620Z,14.90
2017-09-21T17:45:33.947Z,14.90
2017-09-21T17:48:00.221Z,14.80
2017-09-21T17:50:26.435Z,14.60
2017-09-21T17:52:53.543Z,14.70
2017-09-21T17:55:21.490Z,14.60
2017-09-21T17:57:47.995Z,14.60
2017-09-21T18:00:15.671Z,14.40
2017-09-21T18:02:41.905Z,14.40
2017-09-21T18:05:08.686Z,14.40
2017-09-21T18:07:35.222Z,14.40
2017-09-21T18:10:03.748Z,14.50
2017-09-21T18:12:29.962Z,14.50
2017-09-21T18:14:56.800Z,14.40
2017-09-21T18:17:23.393Z,14.40
2017-09-21T18:19:51.785Z,14.40
2017-09-21T18:22:19.036Z,14.40
2017-09-21T18:24:46.289Z,14.50
2017-09-21T18:27:12.946Z,14.40
2017-09-21T18:29:39.179Z,14.40
2017-09-21T18:32:06.071Z,14.30
2017-09-21T18:34:34.139Z,14.10
2017-09-21T18:37:00.387Z,14.10
2017-09-21T18:39:28.549Z,14.00
2017-09-21T18:41:55.183Z,14.00
2017-09-21T18:44:22.197Z,14.00
2017-09-21T18:46:49.124Z,13.90
2017-09-21T18:49:15.492Z,14.00
2017-09-21T18:51:43.086Z,13.80
2017-09-21T18:54:09.762Z,13.80
2017-09-21T18:56:36.723Z,13.90
2017-09-21T18:59:03.332Z,13.80
2017-09-21T19:01:30.209Z,13.80
2017-09-21T19:03:57.472Z,13.80
2017-09-21T19:06:24.351Z,13.80
2017-09-21T19:08:51.331Z,13.80
2017-09-21T19:11:17.620Z,13.80
2017-09-21T19:13:44.125Z,13.70
2017-09-21T19:16:10.364Z,13.70
2017-09-21T19:18:37.472Z,13.70
2017-09-21T19:21:04.022Z,13.70
2017-09-21T19:23:31.738Z,13.70
2017-09-21T19:25:58.312Z,13.70
2017-09-21T19:28:25.123Z,13.60
2017-09-21T19:30:51.395Z,13.70
2017-09-21T19:33:18.727Z,13.70
2017-09-21T19:35:46.172Z,13.70
2017-09-21T19:38:13.491Z,13.70
2017-09-21T19:40:40.797Z,13.80
2017-09-21T19:43:07.101Z,13.80
2017-09-21T19:45:33.356Z,13.80
2017-09-21T19:47:59.605Z,13.80
2017-09-21T19:50:25.849Z,13.80
2017-09-21T19:52:52.846Z,13.70
2017-09-21T19:55:19.582Z,13.70
2017-09-21T19:57:46.829Z,13.70
2017-09-21T20:00:13.185Z,13.60
2017-09-21T20:02:39.695Z,13.60
2017-09-21T20:05:05.955Z,13.60
2017-09-21T20:07:32.748Z,13.50
2017-09-21T20:10:00.020Z,13.50
2017-09-21T20:12:26.716Z,13.50
2017-09-21T20:14:53.350Z,13.50
2017-09-21T20:17:20.671Z,13.50
2017-09-21T20:19:47.673Z,13.40
2017-09-21T20:22:13.944Z,13.40
2017-09-21T20:24:40.375Z,13.40
2017-09-21T20:27:06.808Z,13.40
2017-09-21T20:29:34.240Z,13.50
2017-09-21T20:32:01.505Z,13.50
2017-09-21T20:34:28.950Z,13.50
2017-09-21T20:36:55.501Z,13.50
2017-09-21T22:17:34.444Z,13.10
2017-09-21T22:20:00.916Z,13.10
2017-09-21T22:22:29.569Z,13.00
2017-09-21T22:24:57.613Z,12.80
2017-09-21T22:27:24.405Z,12.80
2017-09-21T22:29:50.679Z,12.70
2017-09-21T22:32:16.961Z,12.70
2017-09-21T22:34:43.469Z,12.80
2017-09-21T22:37:09.693Z,12.80
2017-09-21T22:39:36.094Z,12.90
2017-09-21T22:42:03.171Z,12.90
2017-09-21T22:44:29.901Z,12.90
2017-09-21T22:46:57.269Z,12.90
2017-09-21T22:49:23.992Z,12.90
2017-09-21T22:51:52.248Z,13.00
2017-09-21T22:54:19.945Z,13.00
2017-09-21T22:56:47.567Z,13.00
2017-09-21T22:59:14.537Z,12.90
2017-09-21T23:01:40.797Z,12.90
2017-09-21T23:04:07.007Z,12.90
2017-09-21T23:06:34.733Z,12.90
2017-09-21T23:09:01.888Z,12.90
2017-09-21T23:11:29.206Z,12.90
2017-09-21T23:13:56.604Z,12.80
2017-09-21T23:16:23.951Z,12.80
2017-09-21T23:18:51.056Z,12.90
2017-09-21T23:21:18.926Z,12.90
2017-09-21T23:23:46.589Z,12.90
2017-09-21T23:26:14.149Z,13.00
2017-09-21T23:28:40.739Z,13.00
2017-09-21T23:31:07.672Z,13.00
2017-09-21T23:33:34.950Z,13.00
2017-09-21T23:36:01.573Z,13.00
2017-09-21T23:38:28.557Z,13.00
2017-09-21T23:40:54.799Z,12.90
2017-09-21T23:43:21.020Z,12.90
2017-09-21T23:45:47.810Z,12.90
2017-09-21T23:48:14.022Z,12.80
2017-09-21T23:50:40.998Z,12.80
2017-09-21T23:53:07.341Z,12.80
2017-09-21T23:55:33.570Z,12.80
2017-09-21T23:57:59.993Z,12.80
